createdAt,value
2022-12-13T00:01:17.699Z,3.10
2022-12-13T00:04:06.595Z,3.00
2022-12-13T00:06:54.085Z,2.90
2022-12-13T00:09:39.617Z,2.80
2022-12-13T00:12:25.187Z,3.10
2022-12-13T00:15:12.045Z,3.30
2022-12-13T00:17:58.439Z,2.40
2022-12-13T00:20:43.766Z,2.30
2022-12-13T00:23:29.582Z,2.30
2022-12-13T00:26:19.069Z,2.20
2022-12-13T00:29:06.649Z,2.50
2022-12-13T00:31:59.933Z,2.60
2022-12-13T00:34:48.911Z,2.30
2022-12-13T00:37:34.425Z,2.90
2022-12-13T00:40:21.347Z,2.60
2022-12-13T00:43:08.134Z,2.90
2022-12-13T00:45:54.197Z,3.40
2022-12-13T00:48:42.829Z,3.20
2022-12-13T00:51:30.564Z,2.80
2022-12-13T00:54:16.811Z,3.10
2022-12-13T00:57:03.057Z,3.30
2022-12-13T00:59:49.020Z,3.20
2022-12-13T01:02:35.940Z,3.40
2022-12-13T01:05:46.057Z,2.60
2022-12-13T01:08:29.129Z,2.30
2022-12-13T01:11:15.233Z,2.50
2022-12-13T01:14:00.692Z,3.20
2022-12-13T01:16:46.409Z,3.60
2022-12-13T01:19:33.593Z,3.50
2022-12-13T01:22:19.269Z,3.60
2022-12-13T01:25:05.259Z,3.40
2022-12-13T01:27:50.830Z,3.40
2022-12-13T01:30:36.500Z,3.20
2022-12-13T01:33:22.663Z,3.40
2022-12-13T01:36:12.112Z,3.50
2022-12-13T01:38:58.631Z,3.70
2022-12-13T01:41:47.574Z,3.80
2022-12-13T01:45:02.991Z,3.90
2022-12-13T01:48:09.359Z,3.80
2022-12-13T01:51:01.299Z,3.90
2022-12-13T01:53:50.331Z,3.90
2022-12-13T01:56:41.237Z,3.60
2022-12-13T01:59:27.996Z,3.70
2022-12-13T02:02:15.322Z,3.70
2022-12-13T02:05:09.953Z,3.20
2022-12-13T02:07:57.987Z,3.20
2022-12-13T02:10:44.309Z,3.60
2022-12-13T02:13:29.755Z,3.70
2022-12-13T02:16:35.301Z,3.80
2022-12-13T02:19:46.409Z,4.00
2022-12-13T02:23:23.437Z,4.00
2022-12-13T02:26:32.052Z,3.80
2022-12-13T02:29:30.829Z,4.00
2022-12-13T02:32:38.569Z,4.20
2022-12-13T02:35:31.593Z,4.20
2022-12-13T02:38:29.705Z,4.00
2022-12-13T02:41:49.344Z,3.90
2022-12-13T02:44:44.300Z,4.00
2022-12-13T02:47:32.997Z,4.00
2022-12-13T02:50:20.771Z,4.00
2022-12-13T02:53:08.455Z,4.20
2022-12-13T02:55:53.841Z,4.00
2022-12-13T02:58:45.201Z,4.00
2022-12-13T03:01:54.273Z,4.10
2022-12-13T03:05:47.636Z,4.10
2022-12-13T03:09:07.819Z,4.10
2022-12-13T03:12:24.156Z,4.00
2022-12-13T03:15:28.491Z,4.00
2022-12-13T03:18:17.747Z,4.30
2022-12-13T03:21:06.615Z,3.90
2022-12-13T03:23:52.369Z,4.00
2022-12-13T03:26:41.049Z,4.10
2022-12-13T03:29:27.172Z,3.90
2022-12-13T03:32:13.144Z,3.80
2022-12-13T03:35:00.630Z,3.80
2022-12-13T03:37:46.765Z,3.80
2022-12-13T03:40:34.175Z,3.60
2022-12-13T03:43:21.949Z,3.60
2022-12-13T03:46:09.507Z,4.00
2022-12-13T03:48:55.349Z,3.90
2022-12-13T03:51:40.900Z,4.10
2022-12-13T03:54:26.283Z,4.00
2022-12-13T03:57:11.776Z,4.00
2022-12-13T03:59:57.472Z,4.10
2022-12-13T04:02:43.984Z,4.10
2022-12-13T04:05:30.744Z,4.00
2022-12-13T04:08:22.310Z,3.90
2022-12-13T04:11:27.405Z,3.70
2022-12-13T04:14:22.636Z,3.40
2022-12-13T04:17:08.950Z,3.60
2022-12-13T04:19:54.439Z,4.20
2022-12-13T04:22:40.260Z,3.90
2022-12-13T04:25:27.920Z,3.70
2022-12-13T04:28:21.756Z,3.70
2022-12-13T04:31:08.994Z,3.60
2022-12-13T04:33:54.860Z,3.40
2022-12-13T04:36:41.934Z,3.50
2022-12-13T04:39:27.771Z,3.50
2022-12-13T04:42:20.202Z,3.60
2022-12-13T04:45:06.093Z,3.80
2022-12-13T04:47:51.822Z,3.60
2022-12-13T04:50:37.799Z,3.70
2022-12-13T04:53:23.358Z,3.80
2022-12-13T04:56:09.137Z,3.70
2022-12-13T04:58:55.157Z,3.70
2022-12-13T05:01:41.132Z,3.80
2022-12-13T05:04:32.262Z,3.90
2022-12-13T05:07:18.678Z,3.80
2022-12-13T05:10:05.665Z,4.00
2022-12-13T05:12:51.199Z,4.00
2022-12-13T05:15:36.988Z,4.00
2022-12-13T05:18:23.132Z,3.90
2022-12-13T05:21:10.979Z,3.70
2022-12-13T05:23:56.686Z,3.70
2022-12-13T05:26:42.042Z,3.80
2022-12-13T05:29:28.554Z,4.00
2022-12-13T05:32:14.575Z,3.90
2022-12-13T05:35:00.364Z,3.70
2022-12-13T05:37:46.503Z,3.30
2022-12-13T05:40:41.029Z,3.40
2022-12-13T05:43:42.395Z,3.50
2022-12-13T05:46:28.995Z,3.70
2022-12-13T05:49:14.762Z,3.90
2022-12-13T05:52:00.143Z,3.70
2022-12-13T05:54:45.918Z,3.60
2022-12-13T05:57:31.717Z,3.60
2022-12-13T06:00:29.872Z,3.70
2022-12-13T06:03:16.378Z,3.80
2022-12-13T06:06:04.379Z,3.90
2022-12-13T06:08:50.456Z,3.90
2022-12-13T06:11:36.427Z,3.80
2022-12-13T06:14:29.351Z,4.70
2022-12-13T06:17:15.072Z,3.80
2022-12-13T06:20:23.970Z,3.90
2022-12-13T06:23:10.570Z,3.70
2022-12-13T06:25:56.665Z,3.80
2022-12-13T06:28:42.481Z,3.70
2022-12-13T06:31:27.848Z,3.80
2022-12-13T06:34:14.346Z,3.90
2022-12-13T06:37:02.966Z,4.10
2022-12-13T06:39:48.773Z,4.00
2022-12-13T06:42:34.705Z,4.10
2022-12-13T06:45:20.576Z,4.20
2022-12-13T06:48:06.671Z,4.30
2022-12-13T06:50:53.322Z,4.30
2022-12-13T06:53:40.557Z,4.20
2022-12-13T06:56:26.286Z,3.80
2022-12-13T06:59:13.167Z,3.70
2022-12-13T07:02:03.429Z,3.90
2022-12-13T07:04:49.841Z,3.90
2022-12-13T07:07:35.818Z,4.20
2022-12-13T07:10:22.921Z,4.30
2022-12-13T07:13:08.613Z,4.10
2022-12-13T07:15:54.880Z,3.90
2022-12-13T07:18:47.706Z,4.00
2022-12-13T07:21:36.845Z,4.10
2022-12-13T07:24:22.596Z,4.10
2022-12-13T07:27:09.096Z,4.10
2022-12-13T07:29:58.566Z,3.60
2022-12-13T07:32:48.609Z,3.00
2022-12-13T07:35:37.319Z,1.70
2022-12-13T07:38:24.137Z,2.40
2022-12-13T07:41:10.390Z,2.20
2022-12-13T07:43:56.503Z,3.20
2022-12-13T07:46:42.528Z,2.70
2022-12-13T07:49:30.042Z,3.60
2022-12-13T07:52:15.997Z,2.60
2022-12-13T07:55:03.113Z,2.70
2022-12-13T07:57:49.203Z,3.00
2022-12-13T08:00:34.718Z,3.40
2022-12-13T08:03:24.452Z,3.60
2022-12-13T08:06:12.825Z,3.90
2022-12-13T08:08:58.668Z,3.90
2022-12-13T08:11:44.101Z,4.70
2022-12-13T08:14:30.197Z,3.80
2022-12-13T08:17:16.607Z,4.10
2022-12-13T08:20:02.381Z,4.30
2022-12-13T08:23:02.219Z,4.50
2022-12-13T08:25:54.979Z,4.50
2022-12-13T08:28:40.540Z,4.60
2022-12-13T08:31:26.465Z,4.40
2022-12-13T08:34:20.087Z,4.20
2022-12-13T08:37:06.281Z,4.10
2022-12-13T08:39:52.460Z,4.20
2022-12-13T08:42:38.419Z,4.20
2022-12-13T08:45:27.297Z,4.30
2022-12-13T08:48:14.581Z,4.40
2022-12-13T08:51:07.689Z,4.40
2022-12-13T08:54:10.272Z,4.50
2022-12-13T08:57:03.032Z,4.50
2022-12-13T08:59:51.214Z,4.70
2022-12-13T09:02:40.746Z,4.60
2022-12-13T09:05:34.149Z,4.70
2022-12-13T09:08:24.617Z,4.80
2022-12-13T09:11:20.802Z,4.70
2022-12-13T09:14:14.182Z,4.70
2022-12-13T09:17:03.325Z,4.70
2022-12-13T09:19:50.831Z,4.60
2022-12-13T09:22:45.218Z,4.60
2022-12-13T09:25:36.574Z,4.60
2022-12-13T09:28:23.679Z,4.80
2022-12-13T09:31:12.390Z,5.00
2022-12-13T09:33:58.342Z,5.10
2022-12-13T09:36:45.079Z,5.10
2022-12-13T09:39:31.400Z,5.00
2022-12-13T09:42:23.898Z,4.90
2022-12-13T09:45:22.624Z,4.80
2022-12-13T09:48:22.571Z,4.60
2022-12-13T09:51:18.263Z,4.70
2022-12-13T09:54:24.130Z,4.80
2022-12-13T09:57:31.413Z,5.00
2022-12-13T10:00:23.598Z,5.10
2022-12-13T10:03:14.925Z,5.10
2022-12-13T10:06:23.396Z,5.30
2022-12-13T10:09:14.323Z,5.10
2022-12-13T10:12:03.273Z,5.00
2022-12-13T10:15:02.870Z,5.10
2022-12-13T10:17:55.195Z,5.00
2022-12-13T10:20:42.138Z,5.00
2022-12-13T10:23:42.641Z,5.10
2022-12-13T10:26:38.376Z,5.20
2022-12-13T10:29:24.411Z,5.10
2022-12-13T10:32:13.749Z,5.30
2022-12-13T10:35:11.601Z,5.40
2022-12-13T10:38:02.464Z,5.40
2022-12-13T10:40:49.765Z,5.60
2022-12-13T10:43:38.122Z,5.50
2022-12-13T10:46:25.728Z,5.40
2022-12-13T10:49:26.241Z,5.50
2022-12-13T10:52:32.044Z,5.50
2022-12-13T10:55:32.278Z,5.50
2022-12-13T10:58:20.405Z,5.10
2022-12-13T11:01:22.466Z,5.40
2022-12-13T11:04:30.144Z,5.50
2022-12-13T11:07:33.247Z,5.60
2022-12-13T11:10:27.987Z,5.60
2022-12-13T11:13:29.344Z,5.50
2022-12-13T11:16:17.942Z,4.90
2022-12-13T11:19:07.657Z,5.20
2022-12-13T11:21:54.709Z,5.50
2022-12-13T11:24:42.427Z,5.20
2022-12-13T11:27:55.307Z,5.30
2022-12-13T11:30:43.829Z,5.30
2022-12-13T11:33:47.609Z,5.50
2022-12-13T11:36:45.171Z,5.40
2022-12-13T11:39:45.706Z,5.60
2022-12-13T11:42:47.691Z,5.60
2022-12-13T11:45:47.314Z,5.00
2022-12-13T11:48:42.191Z,5.70
2022-12-13T11:51:39.363Z,5.70
2022-12-13T11:54:49.561Z,5.60
2022-12-13T11:57:56.475Z,5.40
2022-12-13T12:00:52.527Z,5.30
2022-12-13T12:03:45.770Z,5.10
2022-12-13T12:06:44.776Z,5.20
2022-12-13T12:13:51.412Z,5.30
2022-12-13T12:16:59.403Z,5.40
2022-12-13T12:19:54.469Z,5.50
2022-12-13T12:23:05.717Z,5.50
2022-12-13T12:26:04.200Z,5.40
2022-12-13T12:29:01.135Z,5.60
2022-12-13T12:32:14.151Z,5.50
2022-12-13T12:35:27.176Z,5.50
2022-12-13T12:38:50.877Z,5.60
2022-12-13T12:42:01.152Z,5.50
2022-12-13T12:44:59.903Z,5.40
2022-12-13T12:51:47.547Z,5.50
2022-12-13T12:54:52.603Z,5.40
2022-12-13T12:58:13.620Z,5.00
2022-12-13T13:01:52.008Z,4.80
2022-12-13T13:04:44.202Z,4.80
2022-12-13T13:07:39.993Z,4.90
2022-12-13T13:10:27.443Z,4.90
2022-12-13T13:13:46.360Z,5.00
2022-12-13T13:16:42.850Z,5.20
2022-12-13T13:19:33.621Z,5.00
2022-12-13T13:22:34.562Z,5.10
2022-12-13T13:32:30.465Z,5.50
2022-12-13T13:35:33.680Z,5.00
2022-12-13T13:38:49.205Z,5.10
2022-12-13T13:42:07.705Z,5.40
2022-12-13T13:45:02.572Z,5.40
2022-12-13T13:48:21.120Z,5.50
2022-12-13T13:51:10.147Z,5.80
2022-12-13T13:54:01.819Z,6.00
2022-12-13T13:57:22.265Z,5.80
2022-12-13T14:00:54.131Z,5.80
2022-12-13T14:04:00.861Z,5.80
2022-12-13T14:07:10.228Z,5.60
2022-12-13T14:09:55.764Z,5.50
2022-12-13T14:12:47.422Z,5.50
2022-12-13T14:15:55.134Z,5.20
2022-12-13T14:19:08.487Z,5.30
2022-12-13T14:22:13.321Z,5.50
2022-12-13T14:25:40.598Z,5.80
2022-12-13T14:28:48.045Z,5.40
2022-12-13T14:31:42.219Z,5.50
2022-12-13T14:34:32.736Z,5.30
2022-12-13T14:37:24.849Z,5.00
2022-12-13T14:40:27.801Z,5.20
2022-12-13T14:43:34.274Z,5.20
2022-12-13T14:46:22.517Z,5.30
2022-12-13T14:49:11.764Z,5.60
2022-12-13T14:52:05.263Z,5.10
2022-12-13T14:55:04.173Z,5.20
2022-12-13T14:57:55.511Z,5.50
2022-12-13T15:00:41.529Z,5.60
2022-12-13T15:03:28.645Z,5.60
2022-12-13T15:06:14.769Z,5.40
2022-12-13T15:09:00.258Z,5.30
2022-12-13T15:11:46.516Z,5.30
2022-12-13T15:14:37.549Z,5.10
2022-12-13T15:17:35.488Z,5.20
2022-12-13T15:20:42.087Z,5.40
2022-12-13T15:23:48.636Z,5.40
2022-12-13T15:26:47.842Z,5.60
2022-12-13T15:29:35.658Z,5.70
2022-12-13T15:32:23.289Z,5.80
2022-12-13T15:35:16.998Z,5.50
2022-12-13T15:38:03.395Z,5.40
2022-12-13T15:40:50.089Z,5.30
2022-12-13T15:43:43.577Z,5.20
2022-12-13T15:46:39.042Z,5.00
2022-12-13T15:49:36.660Z,4.80
2022-12-13T15:52:47.916Z,4.40
2022-12-13T15:55:36.485Z,4.30
2022-12-13T15:58:48.171Z,3.80
2022-12-13T16:01:36.769Z,4.10
2022-12-13T16:04:37.080Z,4.00
2022-12-13T16:07:32.406Z,4.30
2022-12-13T16:10:19.624Z,3.90
2022-12-13T16:13:08.180Z,4.00
2022-12-13T16:15:59.768Z,4.30
2022-12-13T16:18:52.936Z,4.00
2022-12-13T16:21:38.641Z,4.00
2022-12-13T16:24:24.104Z,4.00
2022-12-13T16:27:10.395Z,3.80
2022-12-13T16:29:56.169Z,3.80
2022-12-13T16:33:17.598Z,4.50
2022-12-13T16:35:47.927Z,4.90
2022-12-13T16:38:33.380Z,5.00
2022-12-13T16:41:19.308Z,4.40
2022-12-13T16:44:08.371Z,4.30
2022-12-13T16:47:15.155Z,4.40
2022-12-13T16:50:03.501Z,4.20
2022-12-13T16:52:49.423Z,3.90
2022-12-13T16:55:35.297Z,4.20
2022-12-13T16:58:23.321Z,4.80
2022-12-13T17:01:14.529Z,5.20
2022-12-13T17:04:03.169Z,5.40
2022-12-13T17:06:54.899Z,5.40
2022-12-13T17:09:42.402Z,5.30
2022-12-13T17:12:28.028Z,4.60
2022-12-13T17:15:15.090Z,4.10
2022-12-13T17:18:02.098Z,3.80
2022-12-13T17:20:58.109Z,4.00
2022-12-13T17:23:44.504Z,4.00
2022-12-13T17:26:30.157Z,4.50
2022-12-13T17:29:17.858Z,3.80
2022-12-13T17:32:05.075Z,3.60
2022-12-13T17:34:51.166Z,3.60
2022-12-13T17:37:37.024Z,4.00
2022-12-13T17:40:23.844Z,4.50
2022-12-13T17:43:16.836Z,4.70
2022-12-13T17:46:12.924Z,4.70
2022-12-13T17:49:02.052Z,5.00
2022-12-13T17:51:51.311Z,5.40
2022-12-13T17:54:38.866Z,5.20
2022-12-13T17:57:24.281Z,5.20
2022-12-13T18:00:11.091Z,4.90
2022-12-13T18:03:00.475Z,4.40
2022-12-13T18:06:12.550Z,4.30
2022-12-13T18:08:58.670Z,5.10
2022-12-13T18:11:44.255Z,5.40
2022-12-13T18:14:30.270Z,5.60
2022-12-13T18:17:16.240Z,5.70
2022-12-13T18:20:02.235Z,5.60
2022-12-13T18:22:51.377Z,5.00
2022-12-13T18:25:37.893Z,4.70
2022-12-13T18:28:23.643Z,5.10
2022-12-13T18:31:18.742Z,5.20
2022-12-13T18:34:05.143Z,5.10
2022-12-13T18:36:50.981Z,4.80
2022-12-13T18:39:36.761Z,4.70
2022-12-13T18:42:23.025Z,4.40
2022-12-13T18:45:08.656Z,4.80
2022-12-13T18:47:54.562Z,5.20
2022-12-13T18:50:44.187Z,5.10
2022-12-13T18:53:33.992Z,4.80
2022-12-13T18:56:19.718Z,4.60
2022-12-13T18:59:05.543Z,4.50
2022-12-13T19:01:51.515Z,4.80
2022-12-13T19:04:37.225Z,4.90
2022-12-13T19:07:23.423Z,5.40
2022-12-13T19:10:09.923Z,5.50
2022-12-13T19:12:55.895Z,5.60
2022-12-13T19:15:41.577Z,5.80
2022-12-13T19:18:28.203Z,5.90
2022-12-13T19:21:17.563Z,5.90
2022-12-13T19:24:03.079Z,6.00
2022-12-13T19:26:48.841Z,6.00
2022-12-13T19:29:34.809Z,5.80
2022-12-13T19:32:20.299Z,4.80
2022-12-13T19:35:06.246Z,4.30
2022-12-13T19:37:53.340Z,4.00
2022-12-13T19:40:40.968Z,4.10
2022-12-13T19:43:28.353Z,4.20
2022-12-13T19:46:14.455Z,4.40
2022-12-13T19:49:00.448Z,4.80
2022-12-13T19:51:46.210Z,5.30
2022-12-13T19:54:32.130Z,5.60
2022-12-13T19:57:18.223Z,5.70
2022-12-13T20:00:05.548Z,5.70
2022-12-13T20:02:52.127Z,5.50
2022-12-13T20:05:38.444Z,5.70
2022-12-13T20:08:24.678Z,5.00
2022-12-13T20:11:13.314Z,4.40
2022-12-13T20:13:58.895Z,4.10
2022-12-13T20:16:44.754Z,3.90
2022-12-13T20:19:30.641Z,3.90
2022-12-13T20:22:16.280Z,3.60
2022-12-13T20:25:02.069Z,3.50
2022-12-13T20:27:47.981Z,3.90
2022-12-13T20:30:34.047Z,3.80
2022-12-13T20:33:19.845Z,4.00
2022-12-13T20:36:24.129Z,4.10
2022-12-13T20:39:12.842Z,4.30
2022-12-13T20:41:58.238Z,4.60
2022-12-13T20:44:43.962Z,4.40
2022-12-13T20:47:32.757Z,4.30
2022-12-13T20:50:20.556Z,4.70
2022-12-13T20:53:06.505Z,4.80
2022-12-13T20:55:57.028Z,5.00
2022-12-13T20:58:43.294Z,4.70
2022-12-13T21:01:32.195Z,4.40
2022-12-13T21:04:18.225Z,3.90
2022-12-13T21:07:04.090Z,3.70
2022-12-13T21:09:49.837Z,4.20
2022-12-13T21:12:35.572Z,4.80
2022-12-13T21:15:21.713Z,4.50
2022-12-13T21:18:07.189Z,4.40
2022-12-13T21:20:55.634Z,4.30
2022-12-13T21:23:41.275Z,4.40
2022-12-13T21:26:33.122Z,3.90
2022-12-13T21:29:20.751Z,3.90
2022-12-13T21:32:06.904Z,4.00
2022-12-13T21:34:52.619Z,4.30
2022-12-13T21:37:38.434Z,4.20
2022-12-13T21:40:29.379Z,4.50
2022-12-13T21:43:17.052Z,4.40
2022-12-13T21:46:15.714Z,4.30
2022-12-13T21:49:01.477Z,4.10
2022-12-13T21:51:48.344Z,4.50
2022-12-13T21:54:34.585Z,4.50
2022-12-13T21:57:40.137Z,4.90
2022-12-13T22:00:25.742Z,4.80
2022-12-13T22:03:11.812Z,5.00
2022-12-13T22:05:57.766Z,4.60
2022-12-13T22:08:43.022Z,4.80
2022-12-13T22:11:31.121Z,4.70
2022-12-13T22:14:16.832Z,4.70
2022-12-13T22:17:03.170Z,4.80
2022-12-13T22:19:50.436Z,5.00
2022-12-13T22:22:38.494Z,4.80
2022-12-13T22:25:24.306Z,4.80
2022-12-13T22:28:10.351Z,5.00
2022-12-13T22:30:56.098Z,4.90
2022-12-13T22:33:42.455Z,4.70
2022-12-13T22:36:28.229Z,4.50
2022-12-13T22:39:23.155Z,4.70
2022-12-13T22:42:19.734Z,4.90
2022-12-13T22:45:06.065Z,5.00
2022-12-13T22:47:51.376Z,5.10
2022-12-13T22:50:37.205Z,5.20
2022-12-13T22:53:22.811Z,5.30
2022-12-13T22:56:15.410Z,5.10
2022-12-13T22:59:02.723Z,5.30
2022-12-13T23:01:48.668Z,5.20
2022-12-13T23:04:34.446Z,5.10
2022-12-13T23:07:20.473Z,5.30
2022-12-13T23:10:26.950Z,5.50
2022-12-13T23:13:16.109Z,5.50
2022-12-13T23:16:06.945Z,5.30
2022-12-13T23:19:05.435Z,5.30
2022-12-13T23:21:59.245Z,5.30
2022-12-13T23:24:44.955Z,5.20
2022-12-13T23:27:30.709Z,5.30
2022-12-13T23:30:16.601Z,5.30
2022-12-13T23:33:02.584Z,5.20
2022-12-13T23:35:58.192Z,5.20
2022-12-13T23:38:45.318Z,5.10
2022-12-13T23:41:33.928Z,4.90
2022-12-13T23:44:19.807Z,4.90
2022-12-13T23:47:05.394Z,5.10
2022-12-13T23:49:51.228Z,5.10
2022-12-13T23:52:37.744Z,5.20
2022-12-13T23:55:23.529Z,5.10
2022-12-13T23:58:09.309Z,5.10
